Time;durP1;ratioP1;P1;durP2;ratioP2;P2;SDS_P1;SDS_P2;PMS_P1;PMS_P2;Temp;Humidity;BMP_temperature;BMP_pressure;BME280_temperature;BME280_humidity;BME280_pressure;Samples;Min_cycle;Max_cycle;Signal;HPM_P1;HPM_P2
2023/08/10 00:01:33;;;;;;;16.70;3.38;;;;;;;-144.73;100.00;54502.13;4991275;28;20030;-74
2023/08/10 00:03:58;;;;;;;20.52;4.47;;;;;;;-144.73;100.00;54522.63;4991068;28;20033;-74
2023/08/10 00:06:24;;;;;;;14.38;3.08;;;;;;;-144.73;100.00;54493.91;4990661;28;20014;-74
2023/08/10 00:08:50;;;;;;;15.73;4.10;;;;;;;-144.73;100.00;54485.69;4994132;28;20021;-74
2023/08/10 00:11:16;;;;;;;23.88;4.00;;;;;;;-144.73;100.00;54506.22;5002718;28;20026;-74
2023/08/10 00:13:41;;;;;;;11.73;3.13;;;;;;;-144.73;100.00;54461.06;5001513;28;20030;-74
2023/08/10 00:16:07;;;;;;;15.10;3.78;;;;;;;-144.73;100.00;54539.06;5001180;28;20097;-74
2023/08/10 00:18:32;;;;;;;17.52;3.55;;;;;;;-144.73;100.00;54483.66;5005014;28;20022;-74
2023/08/10 00:20:57;;;;;;;15.20;3.25;;;;;;;-144.73;100.00;54506.22;4995700;28;20550;-74
2023/08/10 00:23:23;;;;;;;19.63;3.58;;;;;;;-144.73;100.00;54502.13;5001737;28;20026;-74
2023/08/10 00:25:48;;;;;;;17.20;3.30;;;;;;;-144.73;100.00;54504.16;4999815;28;20057;-74
2023/08/10 00:28:15;;;;;;;11.63;3.22;;;;;;;-144.73;100.00;54506.22;5005347;28;20068;-74
2023/08/10 00:30:40;;;;;;;23.90;4.22;;;;;;;-144.73;100.00;54489.81;5001257;28;20054;-74
2023/08/10 00:33:06;;;;;;;17.73;4.53;;;;;;;-144.73;100.00;54508.28;5011057;28;20041;-74
2023/08/10 00:35:32;;;;;;;12.10;3.50;;;;;;;-144.73;100.00;54506.22;4998611;28;20030;-75
2023/08/10 00:37:58;;;;;;;26.35;4.07;;;;;;;-144.73;100.00;54506.22;5007070;28;20045;-73
2023/08/10 00:40:23;;;;;;;15.40;4.18;;;;;;;-144.73;100.00;54500.06;4993575;28;20116;-73
2023/08/10 00:42:48;;;;;;;24.10;3.50;;;;;;;-144.73;100.00;54514.44;4992104;28;20048;-74
2023/08/10 00:45:14;;;;;;;15.13;4.30;;;;;;;-144.73;100.00;54485.69;4991550;28;20077;-73
2023/08/10 00:47:40;;;;;;;19.95;3.72;;;;;;;-144.73;100.00;54506.22;4987151;28;20033;-73
2023/08/10 00:50:06;;;;;;;19.45;3.83;;;;;;;-144.73;100.00;54506.22;4986019;28;20035;-73
2023/08/10 00:52:33;;;;;;;16.23;4.20;;;;;;;-144.73;100.00;54481.59;4991329;28;20018;-74
2023/08/10 00:55:00;;;;;;;13.40;3.47;;;;;;;-144.73;100.00;54514.44;4991495;28;20030;-74
2023/08/10 00:57:25;;;;;;;29.17;3.92;;;;;;;-144.73;100.00;54510.31;4991496;28;20049;-74
2023/08/10 00:59:51;;;;;;;16.15;4.40;;;;;;;-144.73;100.00;54491.84;5001655;28;20111;-74
2023/08/10 01:02:17;;;;;;;18.50;3.75;;;;;;;-144.73;100.00;54541.13;5003126;28;20064;-74
2023/08/10 01:04:42;;;;;;;20.90;3.17;;;;;;;-144.73;100.00;54510.31;4999316;28;20038;-74
2023/08/10 01:07:22;;;;;;;19.33;3.67;;;;;;;-144.73;100.00;54514.44;4991552;28;20030;-74
2023/08/10 01:10:04;;;;;;;10.13;2.80;;;;;;;-144.73;100.00;54539.06;5000090;28;20038;-74
2023/08/10 01:12:43;;;;;;;17.60;3.40;;;;;;;-144.73;100.00;54526.75;4995414;28;20030;-74
2023/08/10 01:15:16;;;;;;;16.50;3.88;;;;;;;-144.73;100.00;54502.13;5005478;28;20034;-74
2023/08/10 01:17:49;;;;;;;17.15;3.67;;;;;;;-144.73;100.00;54553.44;4994089;28;20057;-74
2023/08/10 01:20:18;;;;;;;14.45;3.85;;;;;;;-144.73;100.00;54510.31;4991450;28;20031;-74
2023/08/10 01:22:53;;;;;;;17.58;3.60;;;;;;;-144.73;100.00;54465.16;4995636;28;20390;-74
2023/08/10 01:25:20;;;;;;;23.08;4.05;;;;;;;-144.73;100.00;54467.22;5000780;28;20113;-74
2023/08/10 01:27:45;;;;;;;18.80;4.13;;;;;;;-144.73;100.00;54543.16;5000378;28;20029;-74
2023/08/10 01:30:11;;;;;;;20.15;4.28;;;;;;;-144.73;100.00;54516.47;5000621;28;20038;-74
2023/08/10 01:32:37;;;;;;;17.23;4.00;;;;;;;-144.73;100.00;54506.22;4999903;28;20032;-74
2023/08/10 01:35:05;;;;;;;21.95;4.20;;;;;;;-144.73;100.00;54489.81;4990387;28;20023;-75
2023/08/10 01:37:32;;;;;;;20.55;3.47;;;;;;;-144.73;100.00;54489.81;4991704;28;20026;-74
2023/08/10 01:39:58;;;;;;;20.67;4.00;;;;;;;-144.73;100.00;54485.69;4993214;28;20034;-74
2023/08/10 01:42:24;;;;;;;17.50;3.97;;;;;;;-144.73;100.00;54502.13;4993378;28;20056;-74
2023/08/10 01:44:50;;;;;;;11.82;4.00;;;;;;;-144.73;100.00;54485.69;4998249;28;20113;-74
2023/08/10 01:47:38;;;;;;;20.38;4.43;;;;;;;-144.73;100.00;54502.13;5004046;28;20064;-74
2023/08/10 01:50:07;;;;;;;13.65;3.50;;;;;;;-144.73;100.00;54493.91;4990313;28;20031;-75
2023/08/10 01:52:47;;;;;;;15.05;3.63;;;;;;;-144.73;100.00;54483.66;5001656;28;20020;-75
2023/08/10 01:55:13;;;;;;;21.45;3.10;;;;;;;-144.73;100.00;54506.22;4989101;28;20292;-74
2023/08/10 01:57:39;;;;;;;17.23;3.00;;;;;;;-144.73;100.00;54510.31;5002691;28;20021;-73
2023/08/10 02:00:07;;;;;;;16.83;3.80;;;;;;;-144.73;100.00;54514.44;4992084;28;20102;-73
2023/08/10 02:02:33;;;;;;;16.65;3.25;;;;;;;-144.73;100.00;54526.75;4990623;28;20026;-75
2023/08/10 02:04:58;;;;;;;22.50;5.07;;;;;;;-144.73;100.00;54510.31;4992466;28;20034;-75
2023/08/10 02:07:24;;;;;;;19.42;3.85;;;;;;;-144.73;100.00;54502.13;4998633;28;20077;-74
2023/08/10 02:09:50;;;;;;;14.75;4.10;;;;;;;-144.73;100.00;54489.81;4990454;28;20047;-74
2023/08/10 02:12:16;;;;;;;19.25;3.75;;;;;;;-144.73;100.00;54481.59;4992961;28;20026;-76
2023/08/10 02:14:42;;;;;;;17.23;3.85;;;;;;;-144.73;100.00;54487.75;4993431;28;20071;-75
2023/08/10 02:17:08;;;;;;;23.75;4.13;;;;;;;-144.73;100.00;54539.06;4987248;28;20073;-76
2023/08/10 02:19:33;;;;;;;19.50;3.83;;;;;;;-144.73;100.00;54502.13;4998532;28;20054;-74
2023/08/10 02:21:59;;;;;;;14.98;3.10;;;;;;;-144.73;100.00;54539.06;4998251;28;20041;-74
2023/08/10 02:24:24;;;;;;;14.80;3.13;;;;;;;-144.73;100.00;54502.13;4998039;28;20085;-75
2023/08/10 02:26:49;;;;;;;17.73;2.80;;;;;;;-144.73;100.00;54506.22;5008224;28;20064;-75
2023/08/10 02:29:15;;;;;;;11.30;3.35;;;;;;;-144.73;100.00;54502.13;4996803;28;20088;-75
2023/08/10 02:31:40;;;;;;;21.60;3.47;;;;;;;-144.73;100.00;54530.84;4999099;28;20021;-75
2023/08/10 02:34:06;;;;;;;11.55;3.17;;;;;;;-144.73;100.00;54522.63;5006191;28;20037;-75
2023/08/10 02:36:31;;;;;;;12.20;2.78;;;;;;;-144.73;100.00;54504.16;5001949;28;20096;-75
2023/08/10 02:38:57;;;;;;;14.90;2.85;;;;;;;-144.73;100.00;54524.69;5000766;28;20053;-74
2023/08/10 02:41:22;;;;;;;14.50;3.22;;;;;;;-144.73;100.00;54524.69;4998742;28;20026;-74
2023/08/10 02:43:48;;;;;;;25.48;3.78;;;;;;;-144.73;100.00;54561.63;4997134;28;20081;-75
2023/08/10 02:46:13;;;;;;;22.92;3.38;;;;;;;-144.73;100.00;54502.13;5002900;28;20049;-74
2023/08/10 02:48:39;;;;;;;15.70;3.67;;;;;;;-144.73;100.00;54477.47;4999943;28;20034;-74
2023/08/10 02:51:04;;;;;;;31.20;4.05;;;;;;;-144.73;100.00;54485.69;4991521;28;20030;-75
2023/08/10 02:53:29;;;;;;;22.58;4.28;;;;;;;-144.73;100.00;54514.44;4993190;28;20084;-73
2023/08/10 02:55:55;;;;;;;16.15;3.45;;;;;;;-144.73;100.00;54522.63;4992043;28;20045;-74
2023/08/10 02:58:21;;;;;;;14.00;3.85;;;;;;;-144.73;100.00;54498.00;4988247;28;20464;-73
2023/08/10 03:00:46;;;;;;;14.43;3.05;;;;;;;-144.73;100.00;54485.69;5006873;28;20034;-73
2023/08/10 03:03:11;;;;;;;13.63;2.90;;;;;;;-144.73;100.00;54522.63;5000747;28;20037;-74
2023/08/10 03:05:37;;;;;;;15.27;3.03;;;;;;;-144.73;100.00;54539.06;5001110;28;20034;-74
2023/08/10 03:08:02;;;;;;;20.20;3.75;;;;;;;-144.73;100.00;54506.22;5006300;28;20045;-74
2023/08/10 03:10:28;;;;;;;22.02;2.72;;;;;;;-144.73;100.00;54485.69;5004618;28;20077;-74
2023/08/10 03:12:53;;;;;;;17.23;3.53;;;;;;;-144.73;100.00;54506.22;5004526;28;20109;-74
2023/08/10 03:15:19;;;;;;;17.02;3.30;;;;;;;-144.73;100.00;54500.06;4996184;28;20053;-74
2023/08/10 03:17:44;;;;;;;16.73;3.55;;;;;;;-144.73;100.00;54485.69;5000830;28;20126;-74
2023/08/10 03:20:14;;;;;;;10.55;3.30;;;;;;;-144.73;100.00;54530.84;5002131;28;20093;-74
2023/08/10 03:22:40;;;;;;;12.40;2.97;;;;;;;-144.73;100.00;54514.44;5002454;28;20041;-74
2023/08/10 03:25:05;;;;;;;18.67;3.00;;;;;;;-144.73;100.00;54485.69;4996561;28;20023;-74
2023/08/10 03:27:31;;;;;;;21.67;2.92;;;;;;;-144.73;100.00;54526.75;4994827;28;20026;-74
2023/08/10 03:29:56;;;;;;;11.57;2.80;;;;;;;-144.73;100.00;54508.28;4991941;28;20057;-74
2023/08/10 03:32:22;;;;;;;15.63;3.00;;;;;;;-144.73;100.00;54551.38;4992145;28;20025;-74
2023/08/10 03:34:47;;;;;;;15.02;3.05;;;;;;;-144.73;100.00;54485.69;4990885;28;20041;-74
2023/08/10 03:37:12;;;;;;;16.38;2.90;;;;;;;-144.73;100.00;54473.38;4988698;28;20065;-75
2023/08/10 03:39:38;;;;;;;13.80;3.10;;;;;;;-144.73;100.00;54506.22;4998751;28;20041;-74
2023/08/10 03:42:03;;;;;;;19.10;3.40;;;;;;;-144.73;100.00;54489.81;4999475;28;20030;-74
2023/08/10 03:44:28;;;;;;;13.82;2.50;;;;;;;-144.73;100.00;54547.28;5002491;28;20085;-74
2023/08/10 03:46:54;;;;;;;12.95;2.90;;;;;;;-144.73;100.00;54510.31;4998949;28;20101;-75
2023/08/10 03:49:19;;;;;;;16.10;2.40;;;;;;;-144.73;100.00;54514.44;4993308;28;20121;-74
2023/08/10 03:51:45;;;;;;;14.02;3.30;;;;;;;-144.73;100.00;54493.91;4989973;28;20030;-74
2023/08/10 03:54:10;;;;;;;19.45;4.10;;;;;;;-144.73;100.00;54493.91;4988664;28;20042;-76
2023/08/10 03:56:37;;;;;;;16.52;4.25;;;;;;;-144.73;100.00;54469.28;4990788;28;20029;-74
2023/08/10 03:59:04;;;;;;;10.80;3.08;;;;;;;-144.73;100.00;54510.31;4997758;28;20030;-75
2023/08/10 04:01:30;;;;;;;17.85;3.33;;;;;;;-144.73;100.00;54539.06;4999350;28;20018;-74
2023/08/10 04:03:56;;;;;;;14.48;2.85;;;;;;;-144.73;100.00;54518.53;5005392;28;20022;-75
2023/08/10 04:06:22;;;;;;;21.60;3.10;;;;;;;-144.73;100.00;54487.75;5005225;28;20041;-74
2023/08/10 04:08:48;;;;;;;18.80;3.55;;;;;;;-144.73;100.00;54518.53;5001658;28;20027;-75
2023/08/10 04:11:14;;;;;;;15.38;2.85;;;;;;;-144.73;100.00;54530.84;4989555;28;20023;-75
2023/08/10 04:13:40;;;;;;;29.90;3.97;;;;;;;-144.73;100.00;54469.28;4991565;28;20082;-75
2023/08/10 04:16:06;;;;;;;17.90;3.50;;;;;;;-144.73;100.00;54481.59;4985669;28;20038;-74
2023/08/10 04:18:31;;;;;;;18.70;3.40;;;;;;;-144.73;100.00;54448.75;4989440;28;20025;-74
2023/08/10 04:20:57;;;;;;;13.85;3.22;;;;;;;-144.73;100.00;54518.53;4997058;28;20047;-75
2023/08/10 04:23:23;;;;;;;16.20;3.05;;;;;;;-144.73;100.00;54541.13;5005887;28;20064;-75
2023/08/10 04:25:49;;;;;;;20.92;3.55;;;;;;;-144.73;100.00;54493.91;4994314;28;20034;-75
2023/08/10 04:28:15;;;;;;;15.05;3.05;;;;;;;-144.73;100.00;54493.91;4997849;28;20469;-75
2023/08/10 04:30:41;;;;;;;15.73;3.10;;;;;;;-144.73;100.00;54514.44;5005222;28;20117;-75
2023/08/10 04:33:07;;;;;;;7.65;3.13;;;;;;;-144.73;100.00;54522.63;4995969;28;20086;-75
2023/08/10 04:35:33;;;;;;;21.70;3.42;;;;;;;-144.73;100.00;54498.00;4998110;28;20066;-75
2023/08/10 04:37:58;;;;;;;14.40;3.17;;;;;;;-144.73;100.00;54493.91;4999306;28;20057;-75
2023/08/10 04:40:24;;;;;;;17.42;3.45;;;;;;;-144.73;100.00;54489.81;4999808;28;20117;-75
2023/08/10 04:42:50;;;;;;;12.73;3.42;;;;;;;-144.73;100.00;54493.91;4997026;28;20106;-75
2023/08/10 04:45:16;;;;;;;9.60;2.70;;;;;;;-144.73;100.00;54512.38;4998773;28;20034;-75
2023/08/10 04:47:42;;;;;;;14.77;3.13;;;;;;;-144.73;100.00;54547.28;4998642;28;20017;-75
2023/08/10 04:50:08;;;;;;;27.38;5.35;;;;;;;-144.73;100.00;54502.13;5004285;28;20054;-75
2023/08/10 04:52:33;;;;;;;23.15;3.67;;;;;;;-144.73;100.00;54502.13;4993963;28;20119;-75
2023/08/10 04:54:59;;;;;;;20.95;3.42;;;;;;;-144.73;100.00;54518.53;4990340;28;20057;-75
2023/08/10 04:57:24;;;;;;;23.63;3.58;;;;;;;-144.73;100.00;54498.00;5004979;28;20018;-75
2023/08/10 04:59:49;;;;;;;13.95;3.38;;;;;;;-144.73;100.00;54485.69;4994186;28;20057;-75
2023/08/10 05:02:15;;;;;;;23.80;4.05;;;;;;;-144.73;100.00;54512.38;4990882;28;20026;-75
2023/08/10 05:04:40;;;;;;;18.63;3.00;;;;;;;-144.73;100.00;54555.47;4990541;28;20537;-75
2023/08/10 05:07:06;;;;;;;16.55;3.03;;;;;;;-144.73;100.00;54510.31;4987451;28;20073;-75
2023/08/10 05:09:31;;;;;;;13.27;3.05;;;;;;;-144.73;100.00;54487.75;4989039;28;20042;-75
2023/08/10 05:11:58;;;;;;;10.30;2.85;;;;;;;-144.73;100.00;54506.22;4985143;28;20049;-75
2023/08/10 05:14:23;;;;;;;21.52;4.13;;;;;;;-144.73;100.00;54493.91;4991122;28;20289;-75
2023/08/10 05:16:49;;;;;;;15.32;2.63;;;;;;;-144.73;100.00;54502.13;4990919;28;20086;-75
2023/08/10 05:19:14;;;;;;;21.90;3.22;;;;;;;-144.73;100.00;54493.91;4995087;28;20409;-75
2023/08/10 05:21:40;;;;;;;12.95;3.17;;;;;;;-144.73;100.00;54539.06;5000046;28;20021;-75
2023/08/10 05:24:06;;;;;;;19.13;3.03;;;;;;;-144.73;100.00;54510.31;5002396;28;20105;-75
2023/08/10 05:26:32;;;;;;;17.33;3.30;;;;;;;-144.73;100.00;54510.31;4993283;28;20026;-75
2023/08/10 05:28:57;;;;;;;14.55;3.33;;;;;;;-144.73;100.00;54481.59;4999018;28;20040;-75
2023/08/10 05:31:23;;;;;;;14.07;2.55;;;;;;;-144.73;100.00;54495.97;4996288;28;20271;-75
2023/08/10 05:33:48;;;;;;;19.38;4.10;;;;;;;-144.73;100.00;54518.53;5001731;28;20025;-75
2023/08/10 05:36:13;;;;;;;9.60;2.85;;;;;;;-144.73;100.00;54539.06;5005128;28;20741;-75
2023/08/10 05:38:39;;;;;;;18.65;3.05;;;;;;;-144.73;100.00;54465.16;4997018;28;20026;-75
2023/08/10 05:41:05;;;;;;;19.85;2.97;;;;;;;-144.73;100.00;54506.22;4989724;28;20042;-75
2023/08/10 05:43:30;;;;;;;15.45;3.28;;;;;;;-144.73;100.00;54526.75;4988215;28;20101;-75
2023/08/10 05:45:56;;;;;;;14.73;3.35;;;;;;;-144.73;100.00;54539.06;4992370;28;20110;-75
2023/08/10 05:48:22;;;;;;;13.10;2.83;;;;;;;-144.73;100.00;54502.13;4994136;28;20135;-75
2023/08/10 05:50:48;;;;;;;23.63;3.85;;;;;;;-144.73;100.00;54522.63;5009368;28;20121;-75
2023/08/10 05:53:14;;;;;;;21.90;2.78;;;;;;;-144.73;100.00;54475.44;5006380;28;20022;-75
2023/08/10 05:55:39;;;;;;;26.67;4.40;;;;;;;-144.73;100.00;54498.00;5011368;28;20034;-75
2023/08/10 05:58:05;;;;;;;13.00;2.80;;;;;;;-144.73;100.00;54514.44;4999212;28;20030;-74
2023/08/10 06:00:31;;;;;;;15.63;2.85;;;;;;;-144.73;100.00;54481.59;5001504;28;20077;-75
2023/08/10 06:02:56;;;;;;;17.35;2.92;;;;;;;-144.73;100.00;54493.91;5001528;28;20432;-74
2023/08/10 06:05:22;;;;;;;18.27;2.97;;;;;;;-144.73;100.00;54493.91;4998516;28;20045;-75
2023/08/10 06:07:48;;;;;;;14.02;2.95;;;;;;;-144.73;100.00;54530.84;5001848;28;20449;-75
2023/08/10 06:10:14;;;;;;;25.55;3.20;;;;;;;-144.73;100.00;54506.22;4993192;28;20039;-74
2023/08/10 06:12:41;;;;;;;19.27;2.90;;;;;;;-144.73;100.00;54485.69;4991323;28;20105;-75
2023/08/10 06:15:08;;;;;;;19.67;3.67;;;;;;;-144.73;100.00;54506.22;4992521;28;20081;-75
2023/08/10 06:17:33;;;;;;;14.52;2.97;;;;;;;-144.73;100.00;54508.28;4993496;28;20022;-75
2023/08/10 06:19:59;;;;;;;17.55;3.50;;;;;;;-144.73;100.00;54547.28;4994094;28;20034;-75
2023/08/10 06:22:24;;;;;;;16.92;2.58;;;;;;;-144.73;100.00;54487.75;4996621;28;20018;-74
2023/08/10 06:24:50;;;;;;;15.95;3.33;;;;;;;-144.73;100.00;54489.81;5006299;28;20054;-75
2023/08/10 06:27:15;;;;;;;15.85;2.80;;;;;;;-144.73;100.00;54514.44;5002891;28;20022;-75
2023/08/10 06:29:40;;;;;;;21.23;3.15;;;;;;;-144.73;100.00;54489.81;5000449;28;20089;-74
2023/08/10 06:32:07;;;;;;;21.83;3.13;;;;;;;-144.73;100.00;54491.84;5001873;28;20049;-74
2023/08/10 06:34:33;;;;;;;12.43;2.60;;;;;;;-144.73;100.00;54508.28;4992697;28;20486;-75
2023/08/10 06:36:59;;;;;;;15.25;2.97;;;;;;;-144.73;100.00;54485.69;4998784;28;20017;-75
2023/08/10 06:39:27;;;;;;;24.40;4.03;;;;;;;-144.73;100.00;54477.47;4996840;28;20046;-75
2023/08/10 06:41:53;;;;;;;22.65;3.72;;;;;;;-144.73;100.00;54518.53;5010741;28;20026;-75
2023/08/10 06:44:19;;;;;;;12.68;2.83;;;;;;;-144.73;100.00;54506.22;5007345;28;20033;-75
2023/08/10 06:46:44;;;;;;;17.73;2.55;;;;;;;-144.73;100.00;54518.53;5008435;28;20026;-75
2023/08/10 06:49:10;;;;;;;9.48;2.20;;;;;;;-144.73;100.00;54530.84;4993598;28;20041;-75
2023/08/10 06:51:35;;;;;;;15.77;3.08;;;;;;;-144.73;100.00;54526.75;4996562;28;20030;-75
2023/08/10 06:54:01;;;;;;;19.55;3.47;;;;;;;-144.73;100.00;54493.91;5009382;28;20037;-74
2023/08/10 06:56:26;;;;;;;11.68;2.70;;;;;;;-144.73;100.00;54510.31;5000633;28;20019;-75
2023/08/10 06:58:51;;;;;;;16.83;2.72;;;;;;;-144.73;100.00;54469.28;4997465;28;20109;-75
2023/08/10 07:01:17;;;;;;;15.30;3.03;;;;;;;-144.73;100.00;54493.91;4993909;28;20102;-75
2023/08/10 07:03:42;;;;;;;15.25;3.17;;;;;;;-144.73;100.00;54498.00;5000455;28;20482;-75
2023/08/10 07:06:08;;;;;;;21.30;3.13;;;;;;;-144.73;100.00;54475.44;4993276;28;20062;-75
2023/08/10 07:08:33;;;;;;;19.83;3.15;;;;;;;-144.73;100.00;54485.69;5000296;28;20018;-73
2023/08/10 07:11:03;;;;;;;18.35;3.03;;;;;;;-144.73;100.00;54498.00;5011828;28;20041;-73
2023/08/10 07:13:29;;;;;;;17.08;3.38;;;;;;;-144.73;100.00;54514.44;4996203;28;20078;-74
2023/08/10 07:15:54;;;;;;;13.63;2.50;;;;;;;-144.73;100.00;54461.06;4994814;28;20057;-73
2023/08/10 07:18:20;;;;;;;21.42;3.00;;;;;;;-144.73;100.00;54498.00;4999164;28;20061;-75
2023/08/10 07:20:45;;;;;;;25.58;3.10;;;;;;;-144.73;100.00;54473.38;5002721;28;20037;-74
2023/08/10 07:23:11;;;;;;;20.25;2.92;;;;;;;-144.73;100.00;54502.13;5003583;28;20021;-74
2023/08/10 07:25:37;;;;;;;17.17;2.75;;;;;;;-144.73;100.00;54485.69;5006310;28;20049;-74
2023/08/10 07:28:05;;;;;;;24.08;3.22;;;;;;;-144.73;100.00;54510.31;5000127;28;20030;-74
2023/08/10 07:30:31;;;;;;;22.80;2.13;;;;;;;-144.73;100.00;54530.84;5000574;28;20034;-75
2023/08/10 07:32:56;;;;;;;19.77;3.33;;;;;;;-144.73;100.00;54485.69;5005165;28;20086;-75
2023/08/10 07:35:23;;;;;;;16.00;2.65;;;;;;;-144.73;100.00;54489.81;5001646;28;20034;-74
2023/08/10 07:37:49;;;;;;;20.60;3.10;;;;;;;-144.73;100.00;54514.44;5009946;28;20049;-74
2023/08/10 07:40:14;;;;;;;13.60;2.40;;;;;;;-144.73;100.00;54461.06;4994817;28;20061;-74
2023/08/10 07:42:40;;;;;;;20.25;3.25;;;;;;;-144.73;100.00;54452.84;4999316;28;20535;-74
2023/08/10 07:45:09;;;;;;;9.18;2.58;;;;;;;-144.73;100.00;54440.53;4992306;28;20033;-75
2023/08/10 07:47:35;;;;;;;15.38;2.83;;;;;;;-144.73;100.00;54522.63;5001060;28;20065;-76
2023/08/10 07:50:01;;;;;;;16.85;3.28;;;;;;;-144.73;100.00;54444.66;4996648;28;20046;-74
2023/08/10 07:52:26;;;;;;;15.40;3.10;;;;;;;-144.73;100.00;54475.44;4992973;28;20029;-74
2023/08/10 07:54:51;;;;;;;19.80;2.80;;;;;;;-144.73;100.00;54432.31;4992127;28;20089;-74
2023/08/10 07:57:17;;;;;;;21.13;3.15;;;;;;;-144.73;100.00;54432.31;4992186;28;20446;-74
2023/08/10 07:59:42;;;;;;;19.35;3.22;;;;;;;-144.73;99.92;54461.06;4991904;28;20081;-75
2023/08/10 08:02:08;;;;;;;14.45;2.15;;;;;;;-144.73;93.52;54473.38;5000588;28;20026;-74
2023/08/10 08:04:33;;;;;;;16.65;2.72;;;;;;;-144.73;95.91;54446.69;4999607;28;20425;-73
2023/08/10 08:06:59;;;;;;;27.95;2.63;;;;;;;-144.73;94.32;54489.81;5007363;28;20030;-74
2023/08/10 08:09:24;;;;;;;16.88;2.97;;;;;;;-144.73;98.59;54477.47;4990353;28;20042;-74
2023/08/10 08:11:50;;;;;;;14.15;2.55;;;;;;;-144.73;100.00;54506.22;4997118;28;20125;-73
2023/08/10 08:14:15;;;;;;;21.98;2.67;;;;;;;-144.73;99.50;54489.81;5001084;28;20037;-74
2023/08/10 08:16:41;;;;;;;13.90;3.05;;;;;;;-144.73;91.91;54477.47;4995851;28;20017;-75
2023/08/10 08:19:06;;;;;;;15.57;2.55;;;;;;;-144.73;91.93;54522.63;5005521;28;20068;-74
2023/08/10 08:21:31;;;;;;;22.90;2.55;;;;;;;-144.73;88.86;54510.31;4994238;28;20030;-74
2023/08/10 08:23:57;;;;;;;21.35;2.60;;;;;;;-144.73;84.75;54424.13;5000737;28;20033;-73
2023/08/10 08:26:24;;;;;;;13.20;2.58;;;;;;;-144.73;77.82;54485.69;5000366;28;20496;-73
2023/08/10 08:28:50;;;;;;;15.13;2.70;;;;;;;-144.73;75.39;54428.22;4985767;28;20026;-75
2023/08/10 08:31:16;;;;;;;16.48;2.40;;;;;;;-144.73;76.55;54485.69;4985621;28;20034;-74
2023/08/10 08:33:42;;;;;;;18.40;3.30;;;;;;;-144.73;79.05;54461.06;4992535;28;20069;-75
2023/08/10 08:36:08;;;;;;;27.65;3.72;;;;;;;-144.73;80.64;54469.28;4990638;28;20034;-73
2023/08/10 08:38:33;;;;;;;16.45;2.60;;;;;;;-144.73;81.21;54524.69;4989738;28;20038;-73
2023/08/10 08:41:04;;;;;;;18.92;3.13;;;;;;;-144.73;83.73;54461.06;4992893;28;20028;-73
2023/08/10 08:43:30;;;;;;;17.55;2.22;;;;;;;-144.73;82.64;54465.16;4993254;28;20028;-73
2023/08/10 08:45:57;;;;;;;17.27;2.67;;;;;;;-144.73;84.56;54485.69;4993728;28;20113;-74
2023/08/10 08:48:25;;;;;;;11.75;2.50;;;;;;;-144.73;87.63;54461.06;4989886;28;20028;-74
2023/08/10 08:50:50;;;;;;;17.27;2.60;;;;;;;-144.73;87.53;54459.00;4992849;28;20026;-73
2023/08/10 08:53:16;;;;;;;11.07;2.45;;;;;;;-144.73;86.55;54448.75;4992527;28;20025;-73
2023/08/10 08:55:42;;;;;;;14.95;2.28;;;;;;;-144.73;82.21;54407.69;4990457;28;20042;-73
2023/08/10 08:58:08;;;;;;;13.68;2.55;;;;;;;-144.73;78.17;54448.75;4992024;28;20026;-73
2023/08/10 09:00:34;;;;;;;9.98;2.40;;;;;;;-144.73;78.15;54407.69;4998812;28;20045;-73
2023/08/10 09:03:00;;;;;;;17.85;2.40;;;;;;;-144.73;76.21;54506.22;4990274;28;20030;-73
2023/08/10 09:05:27;;;;;;;19.60;2.53;;;;;;;-144.73;71.51;54465.16;4991372;28;20104;-73
2023/08/10 09:07:53;;;;;;;16.67;2.92;;;;;;;-144.73;69.72;54473.38;4996810;28;20030;-73
2023/08/10 09:10:20;;;;;;;16.33;3.15;;;;;;;-144.73;72.31;54448.75;4980697;28;20042;-74
2023/08/10 09:12:46;;;;;;;23.00;3.75;;;;;;;-144.73;72.48;54448.75;4978255;28;20018;-76
2023/08/10 09:15:13;;;;;;;24.33;3.33;;;;;;;-144.73;72.50;54420.00;4991288;28;20070;-73
2023/08/10 09:17:46;;;;;;;15.90;2.45;;;;;;;-144.73;71.49;54469.28;4991505;28;20026;-75
2023/08/10 09:20:22;;;;;;;21.35;3.17;;;;;;;-144.73;76.61;54473.38;4988708;28;20493;-73
2023/08/10 09:22:52;;;;;;;13.85;2.70;;;;;;;-144.73;79.17;54432.31;4985740;28;20026;-76
2023/08/10 09:25:18;;;;;;;17.80;2.60;;;;;;;-144.73;72.89;54448.75;4990607;28;20083;-75
2023/08/10 09:27:45;;;;;;;23.58;2.85;;;;;;;-144.73;74.14;54387.19;4994857;28;20105;-73
2023/08/10 09:30:11;;;;;;;12.05;2.58;;;;;;;-144.73;75.24;54407.69;4991766;28;20060;-75
2023/08/10 09:32:39;;;;;;;15.73;2.30;;;;;;;-144.73;77.24;54428.22;4992224;28;20121;-74
2023/08/10 09:35:05;;;;;;;9.55;3.05;;;;;;;-144.73;74.91;54407.69;5001319;28;20088;-75
2023/08/10 09:37:31;;;;;;;11.85;2.40;;;;;;;-144.73;73.79;54411.81;4988498;28;20022;-73
2023/08/10 09:40:07;;;;;;;18.83;2.90;;;;;;;-144.73;72.50;54424.13;4996112;28;20049;-73
2023/08/10 09:42:34;;;;;;;13.07;2.42;;;;;;;-144.73;67.21;54440.53;4993543;28;20022;-74
2023/08/10 09:45:10;;;;;;;11.70;2.97;;;;;;;-144.73;68.68;54465.16;4997154;28;20045;-76
2023/08/10 09:47:45;;;;;;;13.90;2.92;;;;;;;-144.73;66.14;54436.44;4985989;28;20034;-74
2023/08/10 09:50:13;;;;;;;13.18;2.45;;;;;;;-144.73;68.90;54440.53;4988580;28;20062;-74
2023/08/10 09:52:40;;;;;;;11.45;2.47;;;;;;;-144.73;67.71;54432.31;4984721;28;20077;-73
2023/08/10 09:55:07;;;;;;;13.55;2.63;;;;;;;-144.73;68.50;54469.28;4984673;28;20042;-74
2023/08/10 09:57:33;;;;;;;15.80;2.60;;;;;;;-144.73;71.90;54456.97;4986362;28;20096;-74
2023/08/10 09:59:59;;;;;;;15.88;2.63;;;;;;;-144.73;71.07;54448.75;4978889;28;20081;-73
2023/08/10 10:02:25;;;;;;;13.38;2.95;;;;;;;-144.73;68.44;54411.81;4979711;28;20097;-74
2023/08/10 10:04:52;;;;;;;12.32;2.92;;;;;;;-144.73;63.34;54452.84;4985313;28;20041;-74
2023/08/10 10:07:25;;;;;;;14.13;2.38;;;;;;;-144.73;65.61;54452.84;4984413;28;20045;-76
2023/08/10 10:09:51;;;;;;;15.85;2.30;;;;;;;-144.73;63.43;54440.53;4983274;28;20030;-73
2023/08/10 10:12:17;;;;;;;15.45;2.42;;;;;;;-144.73;64.02;54465.16;5001691;28;20048;-74
2023/08/10 10:14:44;;;;;;;22.73;2.80;;;;;;;-144.73;66.66;54450.81;4990622;28;20049;-77
2023/08/10 10:17:11;;;;;;;11.88;3.50;;;;;;;-144.73;67.84;54411.81;5001567;28;20037;-74
2023/08/10 10:19:38;;;;;;;17.65;2.55;;;;;;;-144.73;68.62;54415.91;4992832;28;20035;-74
2023/08/10 10:22:04;;;;;;;13.77;2.63;;;;;;;-144.73;70.15;54465.16;5003370;28;20034;-74
2023/08/10 10:24:33;;;;;;;15.98;2.95;;;;;;;-144.73;73.17;54465.16;4989798;28;20056;-76
2023/08/10 10:27:00;;;;;;;22.80;3.50;;;;;;;-144.73;72.66;54448.75;4987912;28;20477;-73
2023/08/10 10:29:48;;;;;;;15.50;2.70;;;;;;;-144.73;72.12;54424.13;4990572;28;20045;-74
2023/08/10 10:32:18;;;;;;;19.35;2.60;;;;;;;-144.73;67.61;54432.31;5002406;28;20055;-73
2023/08/10 10:34:45;;;;;;;9.93;2.30;;;;;;;-144.73;65.40;54498.00;4996263;28;20077;-75
2023/08/10 10:37:16;;;;;;;22.05;2.58;;;;;;;-144.73;70.53;54356.38;4990920;28;20289;-73
2023/08/10 10:39:44;;;;;;;16.45;2.47;;;;;;;-144.73;66.83;54432.31;4984152;28;20278;-75
2023/08/10 10:42:11;;;;;;;15.40;2.60;;;;;;;-144.73;66.68;54383.06;4984647;28;20018;-75
2023/08/10 10:45:03;;;;;;;22.48;2.63;;;;;;;-144.73;67.30;54411.81;4984602;28;20030;-74
2023/08/10 10:47:37;;;;;;;8.02;1.83;;;;;;;-144.73;64.24;54395.38;4989302;28;20025;-74
2023/08/10 10:50:17;;;;;;;21.13;3.10;;;;;;;-144.73;66.88;54391.28;5002875;28;20034;-76
2023/08/10 10:52:57;;;;;;;12.70;2.83;;;;;;;-144.73;65.38;54387.19;5002698;28;20021;-76
2023/08/10 10:55:28;;;;;;;17.25;2.72;;;;;;;-144.73;63.73;54448.75;4996018;28;20026;-73
2023/08/10 10:57:54;;;;;;;13.13;2.45;;;;;;;-144.73;63.49;54415.91;4992238;28;20088;-74
2023/08/10 11:00:21;;;;;;;15.95;2.65;;;;;;;-144.73;66.57;54440.53;4992878;28;20038;-72
2023/08/10 11:02:47;;;;;;;16.27;2.38;;;;;;;-144.73;66.90;54407.69;4986173;28;20047;-73